|
Fecha y hora oficial
|
Temp. (°C)
|
Vel. vento (km/h)
|
Dir. vento
|
Refacho (km/h)
|
Dir. refacho
|
Prec. (mm)
|
Presión (hPa)
|
Tend. (hPa)
|
Humidade (%)
|
|---|---|---|---|---|---|---|---|---|---|
| 11/04/2026 13:00 | |||||||||
| 11/04/2026 12:00 | 18.9 | 0.0 | 35.0 | ||||||
| 11/04/2026 11:00 | 16.4 | 0.0 | 39.0 | ||||||
| 11/04/2026 10:00 | 14.8 | 0.0 | 41.0 | ||||||
| 11/04/2026 09:00 | 13.6 | 0.0 | 41.0 | ||||||
| 11/04/2026 08:00 | 13.2 | 0.0 | 40.0 | ||||||
| 11/04/2026 07:00 | 13.6 | 0.0 | 39.0 | ||||||
| 11/04/2026 06:00 | 14.2 | 0.0 | 37.0 | ||||||
| 11/04/2026 05:00 | 14.6 | 0.0 | 38.0 | ||||||
| 11/04/2026 04:00 | 14.6 | 0.0 | 40.0 | ||||||
| 11/04/2026 03:00 | 14.6 | 0.0 | 44.0 | ||||||
| 11/04/2026 02:00 | 15.4 | 0.0 | 42.0 | ||||||
| 11/04/2026 01:00 | 15.9 | 0.0 | 42.0 | ||||||
| 11/04/2026 00:00 | 16.9 | 0.0 | 41.0 | ||||||
| 10/04/2026 23:00 | 17.9 | 0.0 | 39.0 | ||||||
| 10/04/2026 22:00 | 19.3 | 0.0 | 35.0 | ||||||
| 10/04/2026 21:00 | 21.0 | 0.0 | 33.0 | ||||||
| 10/04/2026 20:00 | 23.1 | 0.0 | 28.0 | ||||||
| 10/04/2026 19:00 | 24.2 | 0.0 | 27.0 | ||||||
| 10/04/2026 18:00 | 24.6 | 0.0 | 27.0 | ||||||
| 10/04/2026 17:00 | 25.8 | 0.0 | 25.0 | ||||||
| 10/04/2026 16:00 | 26.3 | 0.0 | 24.0 | ||||||
| 10/04/2026 15:00 | 25.8 | 0.0 | 23.0 | ||||||
| 10/04/2026 14:00 | 25.5 | 0.0 | 22.0 |